createdAt,value
2023-01-04T00:04:12.971Z,84.80
2023-01-04T00:09:20.561Z,95.70
2023-01-04T00:14:30.727Z,90.10
2023-01-04T00:19:38.347Z,107.10
2023-01-04T00:24:48.161Z,99.30
2023-01-04T00:29:56.433Z,89.50
2023-01-04T00:35:04.662Z,110.40
2023-01-04T00:40:15.035Z,132.40
2023-01-04T00:45:23.181Z,133.30
2023-01-04T00:50:31.513Z,107.20
2023-01-04T00:55:39.673Z,102.00
2023-01-04T01:00:52.645Z,108.20
2023-01-04T01:06:05.316Z,90.00
2023-01-04T01:11:15.084Z,104.20
2023-01-04T01:16:53.925Z,100.70
2023-01-04T01:22:01.900Z,104.20
2023-01-04T01:27:09.717Z,101.10
2023-01-04T01:32:17.134Z,108.40
2023-01-04T01:37:26.108Z,97.60
2023-01-04T01:42:33.317Z,90.40
2023-01-04T01:47:47.233Z,105.80
2023-01-04T01:52:57.390Z,87.40
2023-01-04T02:03:41.036Z,94.50
2023-01-04T02:08:50.420Z,90.20
2023-01-04T02:14:18.095Z,73.80
2023-01-04T02:19:46.202Z,93.70
2023-01-04T02:25:17.215Z,91.50
2023-01-04T02:31:01.582Z,89.00
2023-01-04T02:36:17.947Z,94.90
2023-01-04T02:41:34.240Z,80.40
2023-01-04T02:46:47.284Z,92.40
2023-01-04T02:51:56.637Z,76.40
2023-01-04T02:57:27.772Z,90.10
2023-01-04T03:03:16.162Z,79.10
2023-01-04T03:08:31.955Z,83.20
2023-01-04T03:13:46.644Z,68.30
2023-01-04T03:18:58.004Z,65.20
2023-01-04T03:24:31.148Z,71.90
2023-01-04T03:30:03.154Z,89.10
2023-01-04T03:35:28.427Z,85.00
2023-01-04T03:40:56.030Z,75.80
2023-01-04T03:46:27.974Z,69.30
2023-01-04T03:51:39.272Z,75.50
2023-01-04T03:56:49.261Z,50.30
2023-01-04T04:01:57.784Z,61.50
2023-01-04T04:07:25.086Z,61.40
2023-01-04T04:17:43.392Z,69.70
2023-01-04T04:22:52.209Z,64.20
2023-01-04T04:28:02.353Z,64.70
2023-01-04T04:33:11.811Z,71.50
2023-01-04T04:38:19.525Z,85.70
2023-01-04T04:43:27.459Z,78.40
2023-01-04T04:48:35.269Z,66.20
2023-01-04T04:53:43.276Z,73.40
2023-01-04T04:58:52.002Z,63.00
2023-01-04T05:04:00.800Z,66.70
2023-01-04T05:09:09.089Z,61.10
2023-01-04T05:14:16.808Z,77.60
2023-01-04T05:19:25.903Z,69.30
2023-01-04T05:24:34.889Z,66.20
2023-01-04T05:30:00.516Z,72.70
2023-01-04T05:35:10.174Z,74.70
2023-01-04T05:40:18.199Z,70.90
2023-01-04T05:45:29.890Z,69.20
2023-01-04T05:50:39.081Z,67.50
2023-01-04T05:55:47.115Z,40.90
2023-01-04T06:00:57.723Z,51.00
2023-01-04T06:06:06.166Z,49.00
2023-01-04T06:11:14.338Z,59.10
2023-01-04T06:16:22.034Z,50.70
2023-01-04T06:21:30.992Z,100.70
2023-01-04T06:26:39.119Z,64.70
2023-01-04T06:31:48.198Z,71.10
2023-01-04T06:53:23.534Z,119.10
2023-01-04T06:58:32.066Z,99.00
2023-01-04T07:03:39.652Z,63.20
2023-01-04T07:08:47.736Z,60.30
2023-01-04T07:13:55.946Z,34.50
2023-01-04T07:19:03.690Z,103.30
2023-01-04T07:24:11.565Z,123.50
2023-01-04T07:29:19.792Z,113.20
2023-01-04T07:34:30.217Z,107.80
2023-01-04T07:39:39.305Z,92.50
2023-01-04T07:44:46.978Z,92.00
2023-01-04T07:49:55.144Z,65.80
2023-01-04T07:55:02.768Z,99.80
2023-01-04T08:00:13.560Z,98.20
2023-01-04T08:05:23.435Z,116.00
2023-01-04T08:10:32.526Z,70.20
2023-01-04T08:15:40.346Z,92.30
2023-01-04T08:20:49.297Z,82.50
2023-01-04T08:26:06.257Z,94.50
2023-01-04T08:31:16.966Z,119.10
2023-01-04T08:36:27.983Z,117.20
2023-01-04T08:42:04.298Z,97.10
2023-01-04T08:47:18.705Z,103.20
2023-01-04T08:52:27.188Z,110.90
2023-01-04T08:57:37.358Z,129.60
2023-01-04T09:02:46.011Z,129.40
2023-01-04T09:07:53.916Z,110.50
2023-01-04T09:13:02.648Z,107.80
2023-01-04T09:18:31.488Z,131.00
2023-01-04T09:23:39.808Z,119.40
2023-01-04T09:28:47.102Z,122.20
2023-01-04T09:39:26.679Z,106.60
2023-01-04T09:50:18.991Z,96.10
2023-01-04T09:55:37.234Z,73.80
2023-01-04T10:00:52.036Z,57.20
2023-01-04T10:06:01.179Z,57.70
2023-01-04T10:11:22.480Z,43.00
2023-01-04T10:17:11.842Z,45.40
2023-01-04T10:22:25.111Z,40.40
2023-01-04T10:27:42.885Z,37.90
2023-01-04T10:32:57.409Z,62.70
2023-01-04T10:38:11.987Z,53.00
2023-01-04T10:43:31.149Z,45.20
2023-01-04T10:49:07.537Z,45.70
2023-01-04T10:54:28.002Z,41.90
2023-01-04T10:59:44.979Z,45.10
2023-01-04T11:04:59.083Z,40.00
2023-01-04T11:10:12.771Z,39.60
2023-01-04T11:15:24.837Z,291.30
2023-01-04T11:20:38.093Z,23.70
2023-01-04T11:25:55.765Z,22.80
2023-01-04T11:31:17.475Z,26.90
2023-01-04T11:36:42.985Z,24.80
2023-01-04T11:42:05.158Z,31.30
2023-01-04T11:47:32.991Z,20.80
2023-01-04T11:52:46.507Z,93.70
2023-01-04T11:58:09.898Z,16.60
2023-01-04T12:03:21.541Z,18.70
2023-01-04T12:08:35.307Z,16.20
2023-01-04T12:13:43.665Z,19.20
2023-01-04T12:18:52.203Z,16.00
2023-01-04T12:24:00.643Z,13.90
2023-01-04T12:29:36.229Z,14.90
2023-01-04T12:34:45.609Z,21.50
2023-01-04T12:39:53.926Z,12.60
2023-01-04T12:45:22.214Z,11.20
2023-01-04T12:50:32.455Z,11.50
2023-01-04T12:56:02.679Z,9.70
2023-01-04T13:01:27.642Z,8.60
2023-01-04T13:06:44.186Z,7.60
2023-01-04T13:12:08.280Z,74.50
2023-01-04T13:17:28.214Z,7.20
2023-01-04T13:22:37.706Z,6.20
2023-01-04T13:28:00.407Z,5.20
2023-01-04T13:33:28.013Z,4.80
2023-01-04T13:38:38.130Z,3.50
2023-01-04T13:43:59.445Z,4.90
2023-01-04T13:49:07.191Z,5.00
2023-01-04T13:54:28.946Z,5.90
2023-01-04T13:59:41.589Z,4.50
2023-01-04T14:04:51.711Z,7.10
2023-01-04T14:10:03.081Z,7.30
2023-01-04T14:15:22.858Z,6.20
2023-01-04T14:20:40.942Z,8.20
2023-01-04T14:25:56.699Z,7.80
2023-01-04T14:31:36.442Z,6.20
2023-01-04T14:36:44.514Z,9.30
2023-01-04T14:42:01.655Z,8.30
2023-01-04T14:47:13.132Z,6.40
2023-01-04T14:52:27.556Z,8.20
2023-01-04T14:57:38.605Z,7.90
2023-01-04T15:02:50.808Z,8.00
2023-01-04T15:07:59.370Z,10.30
2023-01-04T15:13:07.542Z,12.40
2023-01-04T15:18:17.291Z,8.10
2023-01-04T15:23:28.621Z,5.80
2023-01-04T15:28:39.873Z,9.50
2023-01-04T15:33:47.557Z,9.40
2023-01-04T15:38:59.660Z,11.80
2023-01-04T15:44:11.560Z,62.40
2023-01-04T15:49:19.225Z,8.30
2023-01-04T15:54:30.028Z,9.20
2023-01-04T15:59:37.466Z,9.00
2023-01-04T16:04:47.557Z,7.90
2023-01-04T16:09:57.527Z,7.20
2023-01-04T16:15:07.884Z,8.90
2023-01-04T16:20:18.474Z,11.50
2023-01-04T16:25:27.564Z,8.10
2023-01-04T16:30:36.468Z,7.70
2023-01-04T16:35:44.270Z,10.40
2023-01-04T16:41:02.750Z,9.20
2023-01-04T16:46:23.055Z,194.00
2023-01-04T16:51:33.492Z,9.70
2023-01-04T16:56:44.113Z,11.40
2023-01-04T17:01:57.646Z,9.20
2023-01-04T17:07:05.814Z,7.00
2023-01-04T17:17:42.869Z,7.40
2023-01-04T17:22:51.051Z,9.20
2023-01-04T17:27:59.772Z,7.10
2023-01-04T17:33:08.708Z,10.10
2023-01-04T17:38:19.005Z,132.50
2023-01-04T17:43:27.492Z,7.90
2023-01-04T17:48:35.445Z,6.80
2023-01-04T17:53:44.881Z,8.60
2023-01-04T17:58:53.471Z,8.70
2023-01-04T18:04:06.052Z,7.30
2023-01-04T18:09:18.595Z,8.60
2023-01-04T18:14:30.299Z,7.80
2023-01-04T18:19:40.328Z,8.90
2023-01-04T18:24:49.786Z,9.80
2023-01-04T18:29:58.918Z,89.60
2023-01-04T18:35:07.856Z,7.10
2023-01-04T18:40:16.196Z,8.40
2023-01-04T18:45:24.110Z,9.00
2023-01-04T18:50:35.292Z,8.20
2023-01-04T18:55:44.022Z,10.40
2023-01-04T19:01:04.909Z,9.60
2023-01-04T19:06:14.300Z,9.10
2023-01-04T19:11:21.819Z,9.30
2023-01-04T19:16:31.482Z,7.80
2023-01-04T19:21:39.462Z,7.60
2023-01-04T19:26:47.308Z,8.50
2023-01-04T19:31:56.026Z,9.30
2023-01-04T19:37:03.513Z,8.70
2023-01-04T19:42:12.598Z,6.90
2023-01-04T19:47:20.699Z,8.10
2023-01-04T19:52:30.998Z,8.00
2023-01-04T19:57:39.081Z,10.10
2023-01-04T20:02:46.595Z,9.40
2023-01-04T20:07:54.688Z,9.10
2023-01-04T20:13:02.221Z,10.60
2023-01-04T20:18:13.944Z,8.30
2023-01-04T20:23:22.667Z,4.70
2023-01-04T20:28:30.793Z,5.80
2023-01-04T20:33:38.764Z,6.10
2023-01-04T20:38:47.405Z,6.70
2023-01-04T20:43:56.038Z,7.20
2023-01-04T20:49:03.781Z,4.70
2023-01-04T20:54:12.220Z,7.60
2023-01-04T20:59:19.805Z,6.20
2023-01-04T21:04:28.639Z,4.70
2023-01-04T21:09:36.979Z,6.20
2023-01-04T21:14:44.643Z,6.20
2023-01-04T21:19:53.057Z,7.00
2023-01-04T21:25:02.006Z,6.40
2023-01-04T21:30:12.569Z,4.80
2023-01-04T21:35:21.822Z,4.90
2023-01-04T21:40:29.501Z,6.40
2023-01-04T21:45:41.934Z,5.70
2023-01-04T21:50:49.944Z,6.50
2023-01-04T21:56:03.327Z,6.30
2023-01-04T22:01:15.824Z,4.60
2023-01-04T22:06:26.047Z,6.20
2023-01-04T22:11:33.791Z,4.40
2023-01-04T22:16:42.102Z,6.20
2023-01-04T22:21:49.735Z,5.80
2023-01-04T22:26:59.964Z,4.50
2023-01-04T22:32:08.326Z,3.40
2023-01-04T22:37:16.261Z,4.70
2023-01-04T22:42:25.804Z,4.40
2023-01-04T22:47:33.239Z,5.20
2023-01-04T22:52:45.863Z,6.30
2023-01-04T22:57:57.613Z,4.60
2023-01-04T23:03:27.936Z,5.10
2023-01-04T23:08:37.058Z,5.90
2023-01-04T23:13:46.720Z,5.10
2023-01-04T23:18:57.888Z,4.40
2023-01-04T23:24:06.772Z,4.60
2023-01-04T23:29:15.166Z,4.90
2023-01-04T23:34:22.877Z,4.70
2023-01-04T23:39:32.325Z,3.20
2023-01-04T23:44:40.948Z,2.40
2023-01-04T23:49:51.931Z,3.60
2023-01-04T23:55:02.848Z,3.90
